createdAt,value
2017-09-05T00:00:31.082Z,21.10
2017-09-05T00:02:58.633Z,21.40
2017-09-05T00:05:26.161Z,21.20
2017-09-05T00:07:59.605Z,20.73
2017-09-05T00:10:27.941Z,21.40
2017-09-05T00:13:09.378Z,20.70
2017-09-05T00:15:40.542Z,21.73
2017-09-05T00:18:23.885Z,21.50
2017-09-05T00:20:51.676Z,20.80
2017-09-05T00:23:19.206Z,21.60
2017-09-05T00:25:47.498Z,22.00
2017-09-05T00:28:15.030Z,22.50
2017-09-05T00:30:42.594Z,22.17
2017-09-05T00:33:10.118Z,21.70
2017-09-05T00:35:37.647Z,21.83
2017-09-05T00:38:05.182Z,22.10
2017-09-05T00:40:32.786Z,22.20
2017-09-05T00:43:00.343Z,22.03
2017-09-05T00:45:27.873Z,21.50
2017-09-05T00:47:55.413Z,22.77
2017-09-05T00:50:22.937Z,21.80
2017-09-05T00:52:50.469Z,21.97
2017-09-05T00:55:18.018Z,22.90
2017-09-05T00:57:45.542Z,22.20
2017-09-05T01:00:13.073Z,23.20
2017-09-05T01:02:40.606Z,22.90
2017-09-05T01:05:08.141Z,21.80
2017-09-05T01:07:35.698Z,22.70
2017-09-05T01:10:03.265Z,22.80
2017-09-05T01:12:30.798Z,22.70
2017-09-05T01:14:58.335Z,22.87
2017-09-05T01:17:25.862Z,22.70
2017-09-05T01:19:53.425Z,23.30
2017-09-05T01:22:20.957Z,22.10
2017-09-05T01:24:48.493Z,22.70
2017-09-05T01:27:16.030Z,22.77
2017-09-05T01:29:43.557Z,23.30
2017-09-05T01:32:11.118Z,22.80
2017-09-05T01:34:38.646Z,23.30
2017-09-05T01:37:06.174Z,23.00
2017-09-05T01:39:34.470Z,23.93
2017-09-05T01:42:02.002Z,24.07
2017-09-05T01:44:29.562Z,23.63
2017-09-05T01:46:57.093Z,25.33
2017-09-05T01:49:24.624Z,23.00
2017-09-05T01:51:52.153Z,25.07
2017-09-05T01:54:19.682Z,24.13
2017-09-05T01:56:47.234Z,23.80
2017-09-05T01:59:14.766Z,24.40
2017-09-05T02:01:42.293Z,24.60
2017-09-05T02:04:09.825Z,24.00
2017-09-05T02:06:37.350Z,23.90
2017-09-05T02:09:04.903Z,23.40
2017-09-05T02:11:32.434Z,24.40
2017-09-05T02:13:59.966Z,25.10
2017-09-05T02:16:28.290Z,25.80
2017-09-05T02:18:55.826Z,27.70
2017-09-05T02:21:23.382Z,27.77
2017-09-05T02:23:50.906Z,28.20
2017-09-05T02:26:18.438Z,28.07
2017-09-05T02:28:45.971Z,29.10
2017-09-05T02:31:13.507Z,29.80
2017-09-05T02:33:41.066Z,30.57
2017-09-05T02:36:08.601Z,28.27
2017-09-05T02:38:36.227Z,26.60
2017-09-05T02:41:03.758Z,25.30
2017-09-05T02:43:31.291Z,24.20
2017-09-05T02:45:58.851Z,24.23
2017-09-05T02:48:26.394Z,23.83
2017-09-05T02:50:53.917Z,23.20
2017-09-05T02:53:21.453Z,22.37
2017-09-05T02:55:49.750Z,23.20
2017-09-05T02:58:17.322Z,23.47
2017-09-05T03:00:44.852Z,23.27
2017-09-05T03:03:12.377Z,23.53
2017-09-05T03:05:39.901Z,24.57
2017-09-05T03:08:07.434Z,31.17
2017-09-05T03:10:35.199Z,25.87
2017-09-05T03:13:03.497Z,25.73
2017-09-05T03:15:31.037Z,28.40
2017-09-05T03:17:58.568Z,27.07
2017-09-05T03:20:26.094Z,28.50
2017-09-05T03:22:53.646Z,26.93
2017-09-05T03:25:21.178Z,27.23
2017-09-05T03:27:48.713Z,25.63
2017-09-05T03:30:16.246Z,25.80
2017-09-05T03:32:43.773Z,25.10
2017-09-05T03:35:11.330Z,23.80
2017-09-05T03:37:38.870Z,23.10
2017-09-05T03:40:06.394Z,23.87
2017-09-05T03:42:33.926Z,24.20
2017-09-05T03:45:01.463Z,24.30
2017-09-05T03:47:29.037Z,24.57
2017-09-05T03:49:56.580Z,24.90
2017-09-05T03:52:24.118Z,24.20
2017-09-05T03:54:51.645Z,23.97
2017-09-05T03:57:19.178Z,24.70
2017-09-05T03:59:46.737Z,23.80
2017-09-05T04:02:14.302Z,23.10
2017-09-05T04:04:41.842Z,23.37
2017-09-05T04:07:09.370Z,22.53
2017-09-05T04:09:36.898Z,23.37
2017-09-05T04:12:04.458Z,24.00
2017-09-05T04:14:31.985Z,23.43
2017-09-05T04:16:59.518Z,25.00
2017-09-05T04:19:27.042Z,23.77
2017-09-05T04:21:54.567Z,24.93
2017-09-05T04:24:22.175Z,24.60
2017-09-05T04:26:49.706Z,24.10
2017-09-05T04:29:17.265Z,25.20
2017-09-05T04:31:44.795Z,24.97
2017-09-05T04:34:12.321Z,25.43
2017-09-05T04:36:39.870Z,26.03
2017-09-05T04:39:07.394Z,25.60
2017-09-05T04:41:34.924Z,27.00
2017-09-05T04:44:02.450Z,25.77
2017-09-05T04:46:29.973Z,26.50
2017-09-05T04:48:57.527Z,26.90
2017-09-05T04:51:25.054Z,27.83
2017-09-05T04:53:52.581Z,27.93
2017-09-05T04:56:20.115Z,28.60
2017-09-05T04:58:47.680Z,30.30
2017-09-05T05:01:15.214Z,29.00
2017-09-05T05:03:42.750Z,27.97
2017-09-05T05:06:10.294Z,28.20
2017-09-05T05:08:37.821Z,29.33
2017-09-05T05:11:05.342Z,28.10
2017-09-05T05:13:32.901Z,27.40
2017-09-05T05:16:00.451Z,26.53
2017-09-05T05:18:27.989Z,25.73
2017-09-05T05:20:55.518Z,26.30
2017-09-05T05:23:23.037Z,25.70
2017-09-05T05:25:50.611Z,25.13
2017-09-05T05:28:18.177Z,26.90
2017-09-05T05:30:45.690Z,24.83
2017-09-05T05:33:13.221Z,24.80
2017-09-05T05:35:40.744Z,24.60
2017-09-05T05:38:08.303Z,24.40
2017-09-05T05:40:35.829Z,23.87
2017-09-05T05:43:03.398Z,24.70
2017-09-05T05:45:30.918Z,23.80
2017-09-05T05:47:58.446Z,25.07
2017-09-05T05:50:25.998Z,24.10
2017-09-05T05:52:53.534Z,23.90
2017-09-05T05:55:21.066Z,25.80
2017-09-05T05:57:48.596Z,24.80
2017-09-05T06:00:16.117Z,23.70
2017-09-05T06:02:43.642Z,23.47
2017-09-05T06:05:11.173Z,22.90
2017-09-05T06:07:38.714Z,24.30
2017-09-05T06:10:06.255Z,23.60
2017-09-05T06:12:33.794Z,25.23
2017-09-05T06:15:01.322Z,24.40
2017-09-05T06:17:28.862Z,24.90
2017-09-05T06:19:56.389Z,26.40
2017-09-05T06:22:23.934Z,24.43
2017-09-05T06:24:51.462Z,23.33
2017-09-05T06:27:19.081Z,23.90
2017-09-05T06:29:46.610Z,23.73
2017-09-05T06:32:14.147Z,23.53
2017-09-05T06:34:41.674Z,23.83
2017-09-05T06:37:09.202Z,23.30
2017-09-05T06:39:36.738Z,22.20
2017-09-05T06:42:04.261Z,22.17
2017-09-05T06:44:31.805Z,22.63
2017-09-05T06:46:59.323Z,22.00
2017-09-05T06:49:26.853Z,21.27
2017-09-05T06:51:54.414Z,22.50
2017-09-05T06:54:21.938Z,21.63
2017-09-05T06:56:49.463Z,22.40
2017-09-05T06:59:17.021Z,22.03
2017-09-05T07:01:44.549Z,22.17
2017-09-05T07:04:12.082Z,22.80
2017-09-05T07:06:39.650Z,22.13
2017-09-05T07:09:07.178Z,21.80
2017-09-05T07:11:35.005Z,21.73
2017-09-05T07:14:02.882Z,21.60
2017-09-05T07:16:30.762Z,21.67
2017-09-05T07:18:58.402Z,21.20
2017-09-05T07:21:26.072Z,21.13
2017-09-05T07:23:53.603Z,21.00
2017-09-05T07:26:21.125Z,22.27
2017-09-05T07:28:48.683Z,22.43
2017-09-05T07:31:16.506Z,22.00
2017-09-05T07:33:44.265Z,22.03
2017-09-05T07:36:11.945Z,21.67
2017-09-05T07:38:39.793Z,21.60
2017-09-05T07:41:07.331Z,22.40
2017-09-05T07:43:34.883Z,21.97
2017-09-05T07:46:02.409Z,22.70
2017-09-05T07:48:29.933Z,21.60
2017-09-05T07:50:57.513Z,21.30
2017-09-05T07:53:29.940Z,21.50
2017-09-05T07:55:58.015Z,22.40
2017-09-05T07:58:25.538Z,21.23
2017-09-05T08:00:53.062Z,21.27
2017-09-05T08:03:20.806Z,21.33
2017-09-05T08:05:48.698Z,20.70
2017-09-05T08:08:16.641Z,20.93
2017-09-05T08:10:44.188Z,20.70
2017-09-05T08:13:11.966Z,20.90
2017-09-05T08:15:39.550Z,20.67
2017-09-05T08:18:07.082Z,21.90
2017-09-05T08:20:34.810Z,21.37
2017-09-05T08:23:02.357Z,22.13
2017-09-05T08:25:30.088Z,20.73
2017-09-05T08:27:58.059Z,21.97
2017-09-05T08:30:26.005Z,21.77
2017-09-05T08:32:53.537Z,21.93
2017-09-05T08:35:21.062Z,22.53
2017-09-05T08:37:48.586Z,24.40
2017-09-05T08:40:17.061Z,22.70
2017-09-05T08:42:44.613Z,22.10
2017-09-05T08:45:12.150Z,22.40
2017-09-05T08:47:39.680Z,23.30
2017-09-05T08:50:07.208Z,22.43
2017-09-05T08:52:34.743Z,22.30
2017-09-05T08:55:02.271Z,23.47
2017-09-05T08:57:29.801Z,23.13
2017-09-05T08:59:57.334Z,21.63
2017-09-05T09:02:24.861Z,21.90
2017-09-05T09:04:52.394Z,22.10
2017-09-05T09:07:19.928Z,22.80
2017-09-05T09:09:47.482Z,22.40
2017-09-05T09:12:15.018Z,21.40
2017-09-05T09:14:42.554Z,22.90
2017-09-05T09:17:10.105Z,21.10
2017-09-05T09:19:37.630Z,21.00
2017-09-05T09:22:05.191Z,20.90
2017-09-05T09:24:32.740Z,22.17
2017-09-05T09:27:00.295Z,21.50
2017-09-05T09:29:27.830Z,22.10
2017-09-05T09:31:55.385Z,22.00
2017-09-05T09:34:22.916Z,22.90
2017-09-05T09:36:50.462Z,21.50
2017-09-05T09:39:18.289Z,21.83
2017-09-05T09:41:45.999Z,21.63
2017-09-05T09:44:13.522Z,21.83
2017-09-05T09:46:41.082Z,22.17
2017-09-05T09:49:08.615Z,21.80
2017-09-05T09:51:36.142Z,21.60
2017-09-05T09:54:03.697Z,23.50
2017-09-05T09:56:31.230Z,21.70
2017-09-05T09:58:58.771Z,22.00
2017-09-05T10:01:26.335Z,21.47
2017-09-05T10:03:54.442Z,20.97
2017-09-05T10:06:21.974Z,21.90
2017-09-05T10:08:49.525Z,21.67
2017-09-05T10:11:17.053Z,22.17
2017-09-05T10:13:44.577Z,22.70
2017-09-05T10:16:12.123Z,21.80
2017-09-05T10:18:39.653Z,21.70
2017-09-05T10:21:07.206Z,20.80
2017-09-05T10:23:34.737Z,20.37
2017-09-05T10:26:02.266Z,20.90
2017-09-05T10:28:29.798Z,21.63
2017-09-05T10:30:57.335Z,21.50
2017-09-05T10:33:24.891Z,21.07
2017-09-05T10:35:52.413Z,20.70
2017-09-05T10:38:19.942Z,20.73
2017-09-05T10:40:47.476Z,20.07
2017-09-05T10:43:15.009Z,20.10
2017-09-05T10:45:42.558Z,19.90
2017-09-05T10:48:10.101Z,19.90
2017-09-05T10:50:37.626Z,20.33
2017-09-05T10:53:05.157Z,20.10
2017-09-05T10:55:32.701Z,19.40
2017-09-05T10:58:00.258Z,20.27
2017-09-05T11:00:27.833Z,20.47
2017-09-05T11:02:55.359Z,19.60
2017-09-05T11:05:22.893Z,19.47
2017-09-05T11:07:50.426Z,19.80
2017-09-05T11:10:18.189Z,19.53
2017-09-05T11:12:45.717Z,20.37
2017-09-05T11:15:13.246Z,20.17
2017-09-05T11:17:40.778Z,19.73
2017-09-05T11:20:08.310Z,20.10
2017-09-05T11:22:35.873Z,20.10
2017-09-05T11:25:03.402Z,20.03
2017-09-05T11:27:31.002Z,20.07
2017-09-05T11:29:58.537Z,19.80
2017-09-05T11:32:26.073Z,19.40
2017-09-05T11:34:53.621Z,19.60
2017-09-05T11:37:21.148Z,19.77
2017-09-05T11:39:48.682Z,18.70
2017-09-05T11:42:16.213Z,18.90
2017-09-05T11:44:43.754Z,19.63
2017-09-05T11:47:11.336Z,18.60
2017-09-05T11:49:38.875Z,19.57
2017-09-05T11:52:06.418Z,19.50
2017-09-05T11:54:33.954Z,19.17
2017-09-05T11:57:01.486Z,18.17
2017-09-05T11:59:29.054Z,19.47
2017-09-05T12:01:56.574Z,18.93
2017-09-05T12:04:24.102Z,18.47
2017-09-05T12:06:51.634Z,19.10
2017-09-05T12:09:19.169Z,18.90
2017-09-05T12:11:46.717Z,18.73
2017-09-05T12:14:14.250Z,18.70
2017-09-05T12:16:41.782Z,19.80
2017-09-05T12:19:09.359Z,18.60
2017-09-05T12:21:36.889Z,18.90
2017-09-05T12:24:04.444Z,18.43
2017-09-05T12:26:37.114Z,19.53
2017-09-05T12:29:04.993Z,18.80
2017-09-05T12:31:32.527Z,18.10
2017-09-05T12:34:00.051Z,18.77
2017-09-05T12:36:27.830Z,18.30
2017-09-05T12:38:55.461Z,18.63
2017-09-05T12:41:23.018Z,19.23
2017-09-05T12:43:50.587Z,19.00
2017-09-05T12:46:18.237Z,19.27
2017-09-05T12:48:45.767Z,19.30
2017-09-05T12:51:13.319Z,19.23
2017-09-05T12:53:40.942Z,19.20
2017-09-05T12:56:08.627Z,20.37
2017-09-05T12:58:36.153Z,18.97
2017-09-05T13:01:03.830Z,20.03
2017-09-05T13:03:31.354Z,20.20
2017-09-05T13:05:58.909Z,19.10
2017-09-05T13:08:26.436Z,19.43
2017-09-05T13:10:53.962Z,20.07
2017-09-05T13:13:21.497Z,19.03
2017-09-05T13:15:49.017Z,20.13
2017-09-05T13:18:16.574Z,20.10
2017-09-05T13:20:44.146Z,19.43
2017-09-05T13:23:11.786Z,19.70
2017-09-05T13:25:39.320Z,19.33
2017-09-05T13:28:06.992Z,20.87
2017-09-05T13:30:34.696Z,19.27
2017-09-05T13:33:02.270Z,19.47
2017-09-05T13:35:29.798Z,19.57
2017-09-05T13:37:57.618Z,20.13
2017-09-05T13:40:25.200Z,20.10
2017-09-05T13:42:52.760Z,19.33
2017-09-05T13:45:20.289Z,19.47
2017-09-05T13:47:47.822Z,19.53
2017-09-05T13:50:15.345Z,19.17
2017-09-05T13:52:42.874Z,20.00
2017-09-05T13:55:10.731Z,19.00
2017-09-05T13:57:38.266Z,18.80
2017-09-05T14:00:05.914Z,20.00
2017-09-05T14:02:33.448Z,19.53
2017-09-05T14:05:01.333Z,18.97
2017-09-05T14:07:29.038Z,20.60
2017-09-05T14:09:56.570Z,18.83
2017-09-05T14:12:24.390Z,18.60
2017-09-05T14:14:51.921Z,18.67
2017-09-05T14:17:19.446Z,19.53
2017-09-05T14:19:46.997Z,18.37
2017-09-05T14:22:14.528Z,19.47
2017-09-05T14:24:42.073Z,19.47
2017-09-05T14:27:09.609Z,27.77
2017-09-05T14:29:37.191Z,25.47
2017-09-05T14:32:04.762Z,19.83
2017-09-05T14:34:32.314Z,20.10
2017-09-05T14:37:00.085Z,20.23
2017-09-05T14:39:27.684Z,19.60
2017-09-05T14:41:55.384Z,19.90
2017-09-05T14:44:23.382Z,19.50
2017-09-05T14:46:50.948Z,19.77
2017-09-05T14:49:18.466Z,19.37
2017-09-05T14:51:45.990Z,18.93
2017-09-05T14:54:13.726Z,21.77
2017-09-05T14:56:41.295Z,19.67
2017-09-05T14:59:08.891Z,19.70
2017-09-05T15:01:37.018Z,20.47
2017-09-05T15:04:04.834Z,20.17
2017-09-05T15:06:32.358Z,20.10
2017-09-05T15:08:59.917Z,19.90
2017-09-05T15:11:27.565Z,19.70
2017-09-05T15:13:55.093Z,19.47
2017-09-05T15:16:22.630Z,20.10
2017-09-05T15:18:50.166Z,21.27
2017-09-05T15:21:17.726Z,19.30
2017-09-05T15:23:45.256Z,20.47
2017-09-05T15:26:12.970Z,20.13
2017-09-05T15:28:40.857Z,20.40
2017-09-05T15:31:08.900Z,19.80
2017-09-05T15:33:36.464Z,20.73
2017-09-05T15:36:03.993Z,19.83
2017-09-05T15:38:31.534Z,20.47
2017-09-05T15:40:59.153Z,20.17
2017-09-05T15:43:26.705Z,19.67
2017-09-05T15:45:54.702Z,20.83
2017-09-05T15:48:22.335Z,21.20
2017-09-05T15:50:50.115Z,20.30
2017-09-05T15:53:17.655Z,19.97
2017-09-05T15:55:45.192Z,20.03
2017-09-05T15:58:12.746Z,20.00
2017-09-05T16:00:40.278Z,21.07
2017-09-05T16:03:07.849Z,20.87
2017-09-05T16:05:35.458Z,19.87
2017-09-05T16:08:03.030Z,19.20
2017-09-05T16:10:30.837Z,20.17
2017-09-05T16:12:58.422Z,19.97
2017-09-05T16:15:25.955Z,20.70
2017-09-05T16:17:53.489Z,19.70
2017-09-05T16:20:21.017Z,19.83
2017-09-05T16:22:48.779Z,20.30
2017-09-05T16:25:16.582Z,19.90
2017-09-05T16:27:44.421Z,21.30
2017-09-05T16:30:12.380Z,20.50
2017-09-05T16:32:41.482Z,21.00
2017-09-05T16:35:09.462Z,20.50
2017-09-05T16:37:37.098Z,21.13
2017-09-05T16:40:05.492Z,21.93
2017-09-05T16:42:33.870Z,32.07
2017-09-05T16:45:01.733Z,24.50
2017-09-05T16:47:29.756Z,22.70
2017-09-05T16:49:58.091Z,21.57
2017-09-05T16:52:25.902Z,21.13
2017-09-05T16:54:53.450Z,22.50
2017-09-05T16:57:21.275Z,20.43
2017-09-05T16:59:49.138Z,21.23
2017-09-05T17:02:17.768Z,21.10
2017-09-05T17:04:45.387Z,22.30
2017-09-05T17:07:12.930Z,22.17
2017-09-05T17:09:40.462Z,21.77
2017-09-05T17:12:08.266Z,22.30
2017-09-05T17:14:35.826Z,21.10
2017-09-05T17:17:03.373Z,23.40
2017-09-05T17:19:31.143Z,21.47
2017-09-05T17:21:58.698Z,20.63
2017-09-05T17:24:26.225Z,21.03
2017-09-05T17:26:53.765Z,21.50
2017-09-05T17:29:21.335Z,19.90
2017-09-05T17:31:48.870Z,20.63
2017-09-05T17:34:16.405Z,20.20
2017-09-05T17:36:43.930Z,20.77
2017-09-05T17:39:11.462Z,20.90
2017-09-05T17:41:39.021Z,20.37
2017-09-05T17:44:06.550Z,20.47
2017-09-05T17:46:34.073Z,21.00
2017-09-05T17:49:01.614Z,20.07
2017-09-05T17:51:29.210Z,21.87
2017-09-05T17:53:56.761Z,21.17
2017-09-05T17:56:24.358Z,21.83
2017-09-05T17:58:51.881Z,21.90
2017-09-05T18:01:19.418Z,21.37
2017-09-05T18:03:46.947Z,20.10
2017-09-05T18:06:14.521Z,21.07
2017-09-05T18:08:42.066Z,21.20
2017-09-05T18:11:09.585Z,20.90
2017-09-05T18:13:37.123Z,20.33
2017-09-05T18:16:04.655Z,20.07
2017-09-05T18:18:32.207Z,19.70
2017-09-05T18:20:59.732Z,19.90
2017-09-05T18:23:27.259Z,19.77
2017-09-05T18:25:54.785Z,21.50
2017-09-05T18:28:22.315Z,36.10
2017-09-05T18:30:49.879Z,68.07
2017-09-05T18:33:17.406Z,24.70
2017-09-05T18:35:44.938Z,21.83
2017-09-05T18:38:12.472Z,20.93
2017-09-05T18:40:40.059Z,20.00
2017-09-05T18:43:07.598Z,22.87
2017-09-05T18:45:35.901Z,23.40
2017-09-05T18:48:03.445Z,21.80
2017-09-05T18:50:30.982Z,21.00
2017-09-05T18:52:59.440Z,21.03
2017-09-05T18:55:26.994Z,21.30
2017-09-05T18:57:54.529Z,45.40
2017-09-05T19:00:22.066Z,25.70
2017-09-05T19:02:49.601Z,24.50
2017-09-05T19:05:17.143Z,23.90
2017-09-05T19:07:44.706Z,22.00
2017-09-05T19:10:12.237Z,22.30
2017-09-05T19:12:39.767Z,22.57
2017-09-05T19:15:07.303Z,23.20
2017-09-05T19:17:34.842Z,23.63
2017-09-05T19:20:02.406Z,23.17
2017-09-05T19:22:29.935Z,24.47
2017-09-05T19:24:57.462Z,25.17
2017-09-05T19:27:25.005Z,25.23
2017-09-05T19:29:52.530Z,26.90
2017-09-05T19:32:20.098Z,25.63
2017-09-05T19:34:47.639Z,27.73
2017-09-05T19:37:15.161Z,23.97
2017-09-05T19:39:42.717Z,25.10
2017-09-05T19:42:10.254Z,26.80
2017-09-05T19:44:37.817Z,26.70
2017-09-05T19:47:05.346Z,24.83
2017-09-05T19:49:33.067Z,25.77
2017-09-05T19:52:00.603Z,27.20
2017-09-05T19:54:28.181Z,27.60
2017-09-05T19:56:55.740Z,25.90
2017-09-05T19:59:23.262Z,24.03
2017-09-05T20:01:50.925Z,27.03
2017-09-05T20:04:18.918Z,25.43
2017-09-05T20:06:46.839Z,23.20
2017-09-05T20:09:14.544Z,25.10
2017-09-05T20:11:42.096Z,25.10
2017-09-05T20:14:09.745Z,27.00
2017-09-05T20:16:37.270Z,25.23
2017-09-05T20:19:05.337Z,25.07
2017-09-05T20:21:33.030Z,25.17
2017-09-05T20:24:00.563Z,25.70
2017-09-05T20:26:29.094Z,25.73
2017-09-05T20:28:56.967Z,27.93
2017-09-05T20:31:24.713Z,28.17
2017-09-05T20:33:52.691Z,27.23
2017-09-05T20:36:20.213Z,27.50
2017-09-05T20:38:47.753Z,27.93
2017-09-05T20:41:15.511Z,28.33
2017-09-05T20:43:43.032Z,25.90
2017-09-05T20:46:10.872Z,25.97
2017-09-05T20:48:38.401Z,25.67
2017-09-05T20:51:06.299Z,25.70
2017-09-05T20:53:33.830Z,25.40
2017-09-05T20:56:01.649Z,26.40
2017-09-05T20:58:29.220Z,24.83
2017-09-05T21:00:56.746Z,27.50
2017-09-05T21:03:24.279Z,27.60
2017-09-05T21:05:51.811Z,30.20
2017-09-05T21:08:19.354Z,30.23
2017-09-05T21:10:46.906Z,28.63
2017-09-05T21:13:14.530Z,29.13
2017-09-05T21:15:42.063Z,29.23
2017-09-05T21:18:09.601Z,31.40
2017-09-05T21:20:37.130Z,33.27
2017-09-05T21:23:04.692Z,37.30
2017-09-05T21:25:32.228Z,39.57
2017-09-05T21:27:59.911Z,38.07
2017-09-05T21:30:27.441Z,35.63
2017-09-05T21:32:55.025Z,32.73
2017-09-05T21:35:22.597Z,30.13
2017-09-05T21:37:50.126Z,28.00
2017-09-05T21:40:17.647Z,27.90
2017-09-05T21:42:45.205Z,27.67
2017-09-05T21:45:12.786Z,26.67
2017-09-05T21:47:40.818Z,26.37
2017-09-05T21:50:08.348Z,27.10
2017-09-05T21:52:35.882Z,26.03
2017-09-05T21:55:03.431Z,26.40
2017-09-05T21:57:30.998Z,26.27
2017-09-05T21:59:58.576Z,30.60
2017-09-05T22:02:26.190Z,30.13
2017-09-05T22:04:53.718Z,31.93
2017-09-05T22:07:21.241Z,30.50
2017-09-05T22:09:48.766Z,31.33
2017-09-05T22:12:16.319Z,31.00
2017-09-05T22:14:49.531Z,30.27
2017-09-05T22:17:19.022Z,30.97
2017-09-05T22:19:52.330Z,30.40
2017-09-05T22:22:19.892Z,31.33
2017-09-05T22:24:53.212Z,30.70
2017-09-05T22:27:35.657Z,29.90
2017-09-05T22:30:03.188Z,30.77
2017-09-05T22:32:30.725Z,29.87
2017-09-05T22:34:58.262Z,29.17
2017-09-05T22:37:25.810Z,30.17
2017-09-05T22:39:53.377Z,27.90
2017-09-05T22:42:20.917Z,28.40
2017-09-05T22:44:48.447Z,28.60
2017-09-05T22:47:15.978Z,27.70
2017-09-05T22:49:43.501Z,26.40
2017-09-05T22:52:11.059Z,26.10
2017-09-05T22:54:38.585Z,26.17
2017-09-05T22:57:06.109Z,26.40
2017-09-05T22:59:33.642Z,25.93
2017-09-05T23:02:01.194Z,25.13
2017-09-05T23:04:28.746Z,25.30
2017-09-05T23:06:56.278Z,24.93
2017-09-05T23:09:23.814Z,25.03
2017-09-05T23:11:51.345Z,24.93
2017-09-05T23:14:19.643Z,24.73
2017-09-05T23:16:47.226Z,24.30
2017-09-05T23:19:14.750Z,25.50
2017-09-05T23:21:42.274Z,24.77
2017-09-05T23:24:09.794Z,25.30
2017-09-05T23:26:37.319Z,27.03
2017-09-05T23:29:04.875Z,25.40
2017-09-05T23:31:33.167Z,25.00
2017-09-05T23:34:00.701Z,27.30
2017-09-05T23:36:28.237Z,27.50
2017-09-05T23:38:55.766Z,29.03
2017-09-05T23:41:23.321Z,33.43
2017-09-05T23:43:50.845Z,37.60
2017-09-05T23:46:18.380Z,36.33
2017-09-05T23:48:45.915Z,37.43
2017-09-05T23:51:13.457Z,38.00
2017-09-05T23:53:41.010Z,38.60
2017-09-05T23:56:08.550Z,39.17
2017-09-05T23:58:36.078Z,38.00
